createdAt,value
2023-02-27T00:00:20.040Z,61.06
2023-02-27T00:03:23.628Z,61.27
2023-02-27T00:06:06.556Z,61.38
2023-02-27T00:08:39.375Z,61.49
2023-02-27T00:11:18.623Z,61.58
2023-02-27T00:14:03.660Z,61.66
2023-02-27T00:16:51.259Z,61.67
2023-02-27T00:19:25.188Z,61.71
2023-02-27T00:21:55.898Z,61.88
2023-02-27T00:24:29.725Z,61.82
2023-02-27T00:27:03.375Z,62.00
2023-02-27T00:29:39.912Z,62.10
2023-02-27T00:32:18.587Z,62.17
2023-02-27T00:34:56.814Z,62.19
2023-02-27T00:37:27.766Z,62.32
2023-02-27T00:40:06.021Z,62.41
2023-02-27T00:42:43.430Z,62.54
2023-02-27T00:45:27.536Z,62.66
2023-02-27T00:48:04.650Z,62.76
2023-02-27T00:50:39.965Z,62.66
2023-02-27T00:53:23.229Z,62.80
2023-02-27T00:56:02.410Z,62.87
2023-02-27T00:59:02.191Z,63.02
2023-02-27T01:01:40.034Z,63.05
2023-02-27T01:04:21.575Z,63.12
2023-02-27T01:07:04.005Z,63.27
2023-02-27T01:09:41.718Z,63.38
2023-02-27T01:12:17.043Z,63.34
2023-02-27T01:14:48.053Z,63.40
2023-02-27T01:17:21.751Z,63.54
2023-02-27T01:19:54.859Z,63.58
2023-02-27T01:22:31.256Z,63.61
2023-02-27T01:25:09.510Z,63.79
2023-02-27T01:27:50.654Z,63.68
2023-02-27T01:30:25.086Z,63.87
2023-02-27T01:33:06.604Z,63.90
2023-02-27T01:35:45.749Z,63.89
2023-02-27T01:38:24.196Z,63.88
2023-02-27T01:41:07.727Z,63.99
2023-02-27T01:44:03.390Z,64.09
2023-02-27T01:46:48.256Z,64.20
2023-02-27T01:49:33.902Z,64.24
2023-02-27T01:52:18.797Z,64.26
2023-02-27T01:55:02.056Z,64.26
2023-02-27T01:57:42.544Z,64.21
2023-02-27T02:00:18.304Z,64.35
2023-02-27T02:03:10.533Z,64.48
2023-02-27T02:05:50.856Z,64.48
2023-02-27T02:08:29.342Z,64.48
2023-02-27T02:11:06.171Z,64.44
2023-02-27T02:13:50.154Z,64.64
2023-02-27T02:17:05.890Z,64.73
2023-02-27T02:20:34.627Z,64.70
2023-02-27T02:23:30.885Z,64.88
2023-02-27T02:26:34.344Z,64.98
2023-02-27T02:29:57.002Z,64.98
2023-02-27T02:33:31.157Z,65.16
2023-02-27T02:36:55.344Z,65.22
2023-02-27T02:39:58.080Z,65.28
2023-02-27T02:43:24.887Z,65.32
2023-02-27T02:46:19.042Z,65.49
2023-02-27T02:49:11.105Z,65.53
2023-02-27T02:52:35.329Z,65.53
2023-02-27T02:55:44.979Z,65.52
2023-02-27T02:58:32.126Z,65.55
2023-02-27T03:01:27.297Z,65.54
2023-02-27T03:04:48.154Z,65.56
2023-02-27T03:07:33.796Z,65.47
2023-02-27T03:10:22.394Z,65.59
2023-02-27T03:13:03.624Z,65.72
2023-02-27T03:15:48.988Z,65.62
2023-02-27T03:18:33.944Z,65.82
2023-02-27T03:21:21.387Z,65.78
2023-02-27T03:24:12.748Z,65.79
2023-02-27T03:26:51.022Z,65.72
2023-02-27T03:29:56.897Z,65.74
2023-02-27T03:32:52.956Z,65.82
2023-02-27T03:35:50.117Z,65.69
2023-02-27T03:38:40.348Z,65.71
2023-02-27T03:41:44.188Z,65.87
2023-02-27T03:45:15.462Z,65.95
2023-02-27T03:47:52.031Z,65.92
2023-02-27T03:50:42.367Z,65.89
2023-02-27T03:53:54.601Z,66.04
2023-02-27T03:56:54.368Z,66.06
2023-02-27T03:59:46.168Z,66.10
2023-02-27T04:02:24.775Z,66.14
2023-02-27T04:05:03.360Z,66.20
2023-02-27T04:08:27.846Z,66.10
2023-02-27T04:11:25.605Z,66.15
2023-02-27T04:14:57.271Z,66.20
2023-02-27T04:17:31.541Z,66.22
2023-02-27T04:20:15.315Z,66.28
2023-02-27T04:23:00.877Z,66.29
2023-02-27T04:25:51.918Z,66.21
2023-02-27T04:29:08.094Z,66.24
2023-02-27T04:32:27.930Z,66.19
2023-02-27T04:35:41.746Z,66.44
2023-02-27T04:38:39.719Z,66.46
2023-02-27T04:41:29.550Z,66.42
2023-02-27T04:44:17.802Z,66.51
2023-02-27T04:46:57.830Z,66.53
2023-02-27T04:50:05.986Z,66.40
2023-02-27T04:53:05.299Z,66.73
2023-02-27T04:55:59.346Z,66.72
2023-02-27T04:58:53.189Z,66.70
2023-02-27T05:01:47.486Z,66.74
2023-02-27T05:04:53.120Z,66.71
2023-02-27T05:07:41.902Z,66.91
2023-02-27T05:10:38.350Z,66.96
2023-02-27T05:13:26.600Z,66.87
2023-02-27T05:16:24.041Z,66.86
2023-02-27T05:19:04.060Z,66.84
2023-02-27T05:21:59.392Z,66.92
2023-02-27T05:25:04.151Z,66.88
2023-02-27T05:27:47.420Z,66.82
2023-02-27T05:30:56.733Z,66.95
2023-02-27T05:34:16.943Z,67.15
2023-02-27T05:37:20.849Z,67.27
2023-02-27T05:40:08.716Z,67.34
2023-02-27T05:42:46.980Z,67.31
2023-02-27T05:45:42.591Z,67.39
2023-02-27T05:48:48.051Z,67.48
2023-02-27T05:51:37.353Z,67.49
2023-02-27T05:54:55.354Z,67.56
2023-02-27T06:01:08.057Z,67.50
2023-02-27T06:03:52.694Z,67.56
2023-02-27T06:06:37.199Z,67.61
2023-02-27T06:09:11.947Z,67.73
2023-02-27T06:11:55.059Z,67.76
2023-02-27T06:14:30.737Z,67.65
2023-02-27T06:17:13.068Z,67.55
2023-02-27T06:19:47.242Z,67.72
2023-02-27T06:22:22.059Z,67.82
2023-02-27T06:24:57.082Z,67.86
2023-02-27T06:27:41.736Z,68.21
2023-02-27T06:30:26.886Z,68.22
2023-02-27T06:33:17.423Z,68.20
2023-02-27T06:36:02.372Z,68.31
2023-02-27T06:38:41.259Z,68.21
2023-02-27T06:41:21.060Z,68.11
2023-02-27T06:43:57.202Z,68.26
2023-02-27T06:46:36.687Z,68.32
2023-02-27T06:49:07.684Z,68.18
2023-02-27T06:51:52.349Z,68.06
2023-02-27T06:54:29.485Z,67.98
2023-02-27T06:57:05.563Z,68.16
2023-02-27T06:59:36.154Z,68.15
2023-02-27T07:02:24.498Z,68.29
2023-02-27T07:05:10.434Z,68.35
2023-02-27T07:07:53.463Z,68.37
2023-02-27T07:10:49.412Z,68.09
2023-02-27T07:13:58.017Z,68.03
2023-02-27T07:16:46.730Z,68.24
2023-02-27T07:20:20.964Z,68.32
2023-02-27T07:24:01.640Z,68.35
2023-02-27T07:27:03.793Z,68.38
2023-02-27T07:29:42.056Z,68.47
2023-02-27T07:32:45.820Z,68.53
2023-02-27T07:35:51.056Z,68.59
2023-02-27T07:38:32.774Z,68.57
2023-02-27T07:41:30.365Z,68.52
2023-02-27T07:44:19.871Z,68.20
2023-02-27T07:47:24.649Z,67.96
2023-02-27T07:50:14.397Z,68.06
2023-02-27T07:53:28.914Z,67.94
2023-02-27T07:56:39.435Z,67.99
2023-02-27T07:59:51.257Z,67.81
2023-02-27T08:02:55.727Z,67.70
2023-02-27T08:05:43.899Z,67.62
2023-02-27T08:08:51.734Z,67.73
2023-02-27T08:11:54.645Z,67.64
2023-02-27T08:14:37.465Z,67.32
2023-02-27T08:17:39.206Z,67.33
2023-02-27T08:20:26.216Z,67.58
2023-02-27T08:23:33.185Z,67.46
2023-02-27T08:26:55.402Z,67.05
2023-02-27T08:30:14.549Z,66.88
2023-02-27T08:40:33.090Z,67.21
2023-02-27T08:43:43.949Z,66.73
2023-02-27T08:47:31.254Z,66.39
2023-02-27T08:51:02.732Z,65.78
2023-02-27T08:54:40.318Z,65.56
2023-02-27T08:58:25.886Z,65.79
2023-02-27T09:01:32.222Z,65.57
2023-02-27T09:04:34.171Z,65.38
2023-02-27T09:07:22.458Z,65.24
2023-02-27T09:10:17.435Z,65.31
2023-02-27T09:13:05.393Z,65.26
2023-02-27T09:15:49.661Z,65.38
2023-02-27T09:19:06.811Z,65.13
2023-02-27T09:21:58.107Z,65.25
2023-02-27T09:25:01.736Z,65.48
2023-02-27T09:28:31.932Z,65.31
2023-02-27T09:34:24.593Z,65.90
2023-02-27T09:37:44.346Z,65.94
2023-02-27T09:40:38.885Z,66.02
2023-02-27T09:43:52.143Z,66.06
2023-02-27T09:46:42.235Z,65.83
2023-02-27T09:49:35.711Z,65.80
2023-02-27T09:52:24.519Z,65.88
2023-02-27T09:55:25.662Z,65.62
2023-02-27T09:58:20.836Z,64.89
2023-02-27T10:04:37.958Z,65.15
2023-02-27T10:07:51.645Z,65.08
2023-02-27T10:11:14.174Z,65.11
2023-02-27T10:14:33.042Z,64.19
2023-02-27T10:17:53.471Z,63.27
2023-02-27T10:20:51.600Z,63.35
2023-02-27T10:24:11.072Z,62.59
2023-02-27T10:27:08.575Z,60.98
2023-02-27T10:30:28.332Z,59.69
2023-02-27T10:33:28.081Z,56.30
2023-02-27T10:36:30.614Z,54.59
2023-02-27T10:39:34.910Z,54.10
2023-02-27T10:42:19.542Z,53.18
2023-02-27T10:45:04.093Z,52.77
2023-02-27T10:48:09.443Z,53.30
2023-02-27T10:51:21.779Z,53.45
2023-02-27T10:54:40.474Z,54.56
2023-02-27T10:58:03.836Z,57.07
2023-02-27T11:01:11.531Z,53.37
2023-02-27T11:07:05.771Z,51.29
2023-02-27T11:10:19.501Z,47.73
2023-02-27T11:13:26.690Z,46.63
2023-02-27T11:16:57.831Z,46.97
2023-02-27T11:19:51.409Z,45.71
2023-02-27T11:26:54.806Z,43.47
2023-02-27T11:30:02.754Z,43.90
2023-02-27T11:34:04.305Z,44.67
2023-02-27T11:41:05.887Z,45.86
2023-02-27T11:44:50.908Z,46.37
2023-02-27T11:48:00.950Z,46.98
2023-02-27T11:51:55.602Z,47.40
2023-02-27T11:55:29.301Z,47.78
2023-02-27T11:58:50.867Z,48.09
2023-02-27T12:02:23.588Z,48.31
2023-02-27T12:06:12.526Z,48.43
2023-02-27T12:10:46.425Z,48.46
2023-02-27T12:14:39.185Z,48.30
2023-02-27T12:17:54.304Z,48.06
2023-02-27T12:23:52.135Z,47.65
2023-02-27T12:26:50.607Z,47.47
2023-02-27T12:29:40.716Z,47.20
2023-02-27T12:32:38.837Z,47.04
2023-02-27T12:39:38.377Z,46.85
2023-02-27T12:58:43.331Z,45.32
2023-02-27T13:02:24.478Z,45.14
2023-02-27T13:06:50.872Z,45.04
2023-02-27T13:10:56.638Z,44.76
2023-02-27T13:14:06.345Z,44.70
2023-02-27T13:17:13.702Z,44.70
2023-02-27T13:19:53.289Z,44.49
2023-02-27T13:22:49.089Z,44.22
2023-02-27T13:25:57.793Z,44.13
2023-02-27T13:29:14.947Z,43.95
2023-02-27T13:33:11.654Z,43.62
2023-02-27T13:37:18.993Z,43.84
2023-02-27T13:41:35.864Z,44.40
2023-02-27T13:48:40.079Z,45.06
2023-02-27T13:52:06.227Z,45.30
2023-02-27T13:55:55.619Z,45.66
2023-02-27T14:00:02.302Z,45.38
2023-02-27T14:04:35.503Z,45.76
2023-02-27T14:19:10.332Z,47.04
2023-02-27T15:31:33.298Z,48.20
2023-02-27T15:34:41.765Z,48.26
2023-02-27T15:38:09.200Z,48.44
2023-02-27T15:41:29.305Z,48.48
2023-02-27T15:45:24.694Z,48.65
2023-02-27T15:48:34.434Z,48.83
2023-02-27T15:51:22.880Z,49.07
2023-02-27T15:54:19.638Z,49.26
2023-02-27T15:57:34.855Z,49.26
2023-02-27T16:00:26.016Z,49.40
2023-02-27T16:03:43.225Z,49.61
2023-02-27T16:06:39.931Z,49.87
2023-02-27T16:09:51.675Z,49.90
2023-02-27T16:17:02.762Z,50.16
2023-02-27T16:20:40.134Z,50.23
2023-02-27T16:24:59.544Z,50.39
2023-02-27T16:27:17.268Z,50.66
2023-02-27T16:30:48.908Z,50.74
2023-02-27T16:33:43.208Z,50.79
2023-02-27T16:36:38.967Z,50.99
2023-02-27T16:39:29.104Z,51.26
2023-02-27T16:42:27.913Z,51.25
2023-02-27T16:45:53.288Z,51.45
2023-02-27T16:48:50.935Z,51.74
2023-02-27T16:58:45.354Z,52.12
2023-02-27T17:01:47.857Z,52.20
2023-02-27T17:08:57.432Z,52.48
2023-02-27T17:11:33.897Z,52.59
2023-02-27T17:14:04.586Z,52.58
2023-02-27T17:16:33.557Z,52.73
2023-02-27T17:19:01.330Z,52.80
2023-02-27T17:21:30.533Z,52.73
2023-02-27T17:23:59.701Z,52.93
2023-02-27T17:26:29.081Z,53.01
2023-02-27T17:28:58.706Z,53.04
2023-02-27T17:31:27.525Z,53.30
2023-02-27T17:33:56.368Z,53.49
2023-02-27T17:36:26.155Z,53.57
2023-02-27T17:39:02.709Z,53.58
2023-02-27T17:41:33.083Z,53.66
2023-02-27T17:44:02.296Z,53.69
2023-02-27T17:46:31.747Z,53.69
2023-02-27T17:49:01.197Z,53.80
2023-02-27T17:51:31.825Z,53.86
2023-02-27T17:54:03.183Z,53.99
2023-02-27T17:56:33.386Z,54.08
2023-02-27T17:59:03.614Z,54.19
2023-02-27T18:01:32.534Z,54.38
2023-02-27T18:04:01.418Z,54.44
2023-02-27T18:06:30.587Z,54.52
2023-02-27T18:08:59.736Z,54.68
2023-02-27T18:11:28.707Z,54.63
2023-02-27T18:13:57.912Z,54.67
2023-02-27T18:16:27.117Z,54.77
2023-02-27T18:18:56.265Z,54.98
2023-02-27T18:21:25.167Z,55.13
2023-02-27T18:23:54.882Z,55.17
2023-02-27T18:26:30.443Z,55.29
2023-02-27T18:29:07.093Z,55.40
2023-02-27T18:32:13.911Z,55.45
2023-02-27T18:45:03.631Z,55.97
2023-02-27T18:53:31.990Z,56.32
2023-02-27T18:57:04.820Z,56.46
2023-02-27T19:20:07.044Z,52.79
2023-02-27T19:24:25.005Z,53.72
2023-02-27T20:40:03.650Z,57.07
2023-02-27T20:42:34.069Z,56.99
2023-02-27T20:49:49.576Z,57.18
2023-02-27T20:53:27.297Z,57.24
2023-02-27T21:01:13.433Z,57.69
2023-02-27T21:35:36.030Z,58.06
2023-02-27T21:39:07.321Z,58.24
2023-02-27T21:43:11.125Z,58.30
2023-02-27T22:50:33.702Z,53.90
2023-02-27T23:29:03.769Z,57.97
2023-02-27T23:33:02.363Z,58.16
2023-02-27T23:41:10.086Z,58.74
2023-02-27T23:45:13.722Z,58.92
